Time;durP1;ratioP1;P1;durP2;ratioP2;P2;SDS_P1;SDS_P2;PMS_P1;PMS_P2;Temp;Humidity;BMP_temperature;BMP_pressure;BME280_temperature;BME280_humidity;BME280_pressure;Samples;Min_cycle;Max_cycle;Signal;HPM_P1;HPM_P2
2022/12/23 03:00:57;;;;;;;11.80;11.10;;;10.60;99.90;;;;;;5759247;23;20231;-79
2022/12/23 03:03:25;;;;;;;11.83;11.20;;;10.60;99.90;;;;;;4922334;29;20329;-79
2022/12/23 03:05:54;;;;;;;12.13;11.37;;;10.60;99.90;;;;;;4918958;29;20739;-79
2022/12/23 03:08:24;;;;;;;11.83;11.23;;;10.60;99.90;;;;;;4922562;29;20264;-79
2022/12/23 03:11:03;;;;;;;12.23;11.63;;;10.60;99.90;;;;;;4921911;29;20228;-79
2022/12/23 03:13:46;;;;;;;11.93;11.33;;;10.60;99.90;;;;;;4912661;23;20995;-79
2022/12/23 03:16:22;;;;;;;11.90;11.30;;;10.60;99.90;;;;;;4924340;29;20591;-80
2022/12/23 03:19:02;;;;;;;11.60;11.00;;;10.60;99.90;;;;;;4923104;29;20199;-80
2022/12/23 03:21:35;;;;;;;11.87;11.27;;;10.60;99.90;;;;;;4915617;29;20192;-79
2022/12/23 03:24:14;;;;;;;12.07;11.47;;;10.60;99.90;;;;;;4923638;29;20228;-78
2022/12/23 03:26:49;;;;;;;11.80;11.20;;;10.60;99.90;;;;;;4919044;29;20200;-79
2022/12/23 03:29:20;;;;;;;11.70;11.10;;;10.60;99.90;;;;;;4927842;29;20210;-80
2022/12/23 03:31:50;;;;;;;12.20;11.50;;;10.60;99.90;;;;;;4929094;29;20549;-80
2022/12/23 03:34:22;;;;;;;12.53;11.73;;;10.60;99.90;;;;;;4925363;29;20227;-80
2022/12/23 03:36:52;;;;;;;12.63;11.93;;;10.60;99.90;;;;;;4924536;29;20199;-80
2022/12/23 03:39:23;;;;;;;12.57;11.93;;;10.60;99.90;;;;;;4920769;29;20264;-79
2022/12/23 03:41:56;;;;;;;12.50;11.90;;;10.60;99.90;;;;;;4927756;29;20638;-79
2022/12/23 03:44:28;;;;;;;12.60;11.90;;;10.60;99.90;;;;;;4923533;29;20278;-80
2022/12/23 03:47:02;;;;;;;12.60;11.90;;;10.60;99.90;;;;;;4922990;29;20660;-79
2022/12/23 03:49:33;;;;;;;12.20;11.60;;;10.60;99.90;;;;;;4916411;29;20206;-80
2022/12/23 03:52:04;;;;;;;12.40;11.80;;;10.60;99.90;;;;;;4924460;29;20233;-79
2022/12/23 03:54:36;;;;;;;12.37;11.77;;;10.60;99.90;;;;;;4923634;29;20736;-79
2022/12/23 03:57:05;;;;;;;12.30;11.70;;;10.60;99.90;;;;;;4922739;29;20347;-80
2022/12/23 03:59:36;;;;;;;12.37;11.77;;;10.60;99.90;;;;;;4930911;29;20204;-80
2022/12/23 04:02:09;;;;;;;11.97;11.37;;;10.60;99.90;;;;;;4925363;29;20633;-78
2022/12/23 04:04:49;;;;;;;12.07;11.47;;;10.60;99.90;;;;;;4926701;29;20709;-80
2022/12/23 04:07:19;;;;;;;12.00;11.40;;;10.60;99.90;;;;;;4924916;29;20260;-80
2022/12/23 04:09:47;;;;;;;12.70;12.00;;;10.60;99.90;;;;;;4923520;29;20208;-79
2022/12/23 04:12:15;;;;;;;12.77;12.17;;;10.60;99.90;;;;;;4925820;29;20635;-79
2022/12/23 04:14:47;;;;;;;12.37;11.77;;;10.60;99.90;;;;;;4924950;29;20308;-79
2022/12/23 04:17:15;;;;;;;12.13;11.53;;;10.60;99.90;;;;;;4928535;29;20212;-78
2022/12/23 04:19:44;;;;;;;12.17;11.57;;;10.60;99.90;;;;;;4925040;29;20291;-79
2022/12/23 04:22:11;;;;;;;12.40;11.80;;;10.60;99.90;;;;;;4928841;29;20205;-79
2022/12/23 04:24:38;;;;;;;12.50;11.90;;;10.60;99.90;;;;;;4925998;29;20250;-80
2022/12/23 04:27:05;;;;;;;12.53;11.93;;;10.60;99.90;;;;;;4926201;29;20283;-79
2022/12/23 04:29:32;;;;;;;12.70;12.00;;;10.60;99.90;;;;;;4927419;29;20244;-80
2022/12/23 04:31:59;;;;;;;12.77;12.07;;;10.60;99.90;;;;;;4928005;29;20634;-80
2022/12/23 04:34:27;;;;;;;12.73;12.13;;;10.60;99.90;;;;;;4927508;29;20661;-79
2022/12/23 04:36:54;;;;;;;12.87;12.17;;;10.70;99.90;;;;;;4926123;29;20221;-80
2022/12/23 04:39:21;;;;;;;13.07;12.37;;;10.70;99.90;;;;;;4928195;29;20259;-78
2022/12/23 04:41:47;;;;;;;12.90;12.20;;;10.60;99.90;;;;;;4929920;29;20205;-80
2022/12/23 04:44:14;;;;;;;12.87;12.20;;;10.70;99.90;;;;;;4924250;29;20218;-79
2022/12/23 04:46:41;;;;;;;13.33;12.63;;;10.70;99.90;;;;;;4927115;29;20717;-79
2022/12/23 04:49:08;;;;;;;13.20;12.50;;;10.70;99.90;;;;;;4927694;29;20679;-80
2022/12/23 04:51:36;;;;;;;12.87;12.27;;;10.70;99.90;;;;;;4921371;29;20256;-78
2022/12/23 04:54:03;;;;;;;13.03;12.33;;;10.70;99.90;;;;;;4916574;29;20233;-79
2022/12/23 04:56:30;;;;;;;12.70;12.10;;;10.80;99.90;;;;;;4918055;29;20236;-79
2022/12/23 04:58:57;;;;;;;13.27;12.53;;;10.70;99.90;;;;;;4916869;29;20202;-78
2022/12/23 05:01:24;;;;;;;13.80;13.10;;;10.70;99.90;;;;;;4914051;29;20209;-78
2022/12/23 05:03:51;;;;;;;13.00;12.37;;;10.80;99.90;;;;;;4917788;29;20317;-79
2022/12/23 05:06:17;;;;;;;13.33;12.63;;;10.80;99.90;;;;;;4923418;29;20265;-79
2022/12/23 05:08:46;;;;;;;13.20;12.50;;;10.80;99.90;;;;;;4921080;29;20224;-78
2022/12/23 05:11:12;;;;;;;13.20;12.50;;;10.80;99.90;;;;;;4920926;29;20449;-78
2022/12/23 05:13:39;;;;;;;13.10;12.40;;;10.80;99.90;;;;;;4920606;29;20281;-79
2022/12/23 05:16:07;;;;;;;13.10;12.40;;;10.80;99.90;;;;;;4922228;29;20242;-78
2022/12/23 05:18:33;;;;;;;13.00;12.30;;;10.80;99.90;;;;;;4925550;29;20250;-77
2022/12/23 05:21:00;;;;;;;13.20;12.50;;;10.80;99.90;;;;;;4914572;29;20207;-77
2022/12/23 05:23:27;;;;;;;13.30;12.60;;;10.80;99.90;;;;;;4913557;29;20272;-79
2022/12/23 05:25:55;;;;;;;13.47;12.77;;;10.80;99.90;;;;;;4916227;29;20197;-79
2022/12/23 05:28:23;;;;;;;13.50;12.80;;;10.90;99.90;;;;;;4923554;29;20743;-79
2022/12/23 05:30:56;;;;;;;13.10;12.40;;;10.90;99.90;;;;;;4928024;29;20197;-78
2022/12/23 05:33:23;;;;;;;13.60;12.83;;;10.90;99.90;;;;;;4924654;29;20715;-79
2022/12/23 05:35:50;;;;;;;13.60;12.90;;;10.90;99.90;;;;;;4927888;29;20280;-79
2022/12/23 05:38:17;;;;;;;13.40;12.70;;;10.90;99.90;;;;;;4930697;29;20221;-79
2022/12/23 05:40:44;;;;;;;13.43;12.73;;;10.90;99.90;;;;;;4927477;29;20228;-79
2022/12/23 05:43:12;;;;;;;13.90;13.10;;;11.00;99.90;;;;;;4929705;29;20204;-79
2022/12/23 05:45:39;;;;;;;13.37;12.67;;;11.00;99.90;;;;;;4926446;29;20268;-78
2022/12/23 05:48:06;;;;;;;13.50;12.70;;;11.00;99.90;;;;;;4930689;29;20227;-78
2022/12/23 05:50:33;;;;;;;13.53;12.83;;;10.90;99.90;;;;;;4926853;29;20392;-78
2022/12/23 05:53:02;;;;;;;13.67;12.97;;;11.00;99.90;;;;;;4927624;29;20196;-77
2022/12/23 05:55:28;;;;;;;13.57;12.87;;;11.00;99.90;;;;;;4931021;29;20205;-78
2022/12/23 05:57:55;;;;;;;13.70;13.00;;;11.00;99.90;;;;;;4929415;29;20208;-77
2022/12/23 06:00:24;;;;;;;14.00;13.30;;;11.00;99.90;;;;;;4928292;29;20212;-77
2022/12/23 06:02:50;;;;;;;14.10;13.40;;;11.00;99.90;;;;;;4927652;29;20209;-78
2022/12/23 06:05:17;;;;;;;13.70;13.00;;;11.00;99.90;;;;;;4933665;29;20257;-78
2022/12/23 06:07:44;;;;;;;13.60;12.90;;;11.00;99.90;;;;;;4929153;29;20633;-79
2022/12/23 06:10:11;;;;;;;13.70;13.00;;;11.00;99.90;;;;;;4925643;29;20233;-78
2022/12/23 06:12:38;;;;;;;13.60;12.90;;;10.90;99.90;;;;;;4928052;29;20622;-78
2022/12/23 06:15:06;;;;;;;13.97;13.20;;;10.90;99.90;;;;;;4929300;29;20232;-79
2022/12/23 06:17:34;;;;;;;13.70;13.00;;;10.90;99.90;;;;;;4929083;29;20213;-78
2022/12/23 06:20:01;;;;;;;13.83;13.03;;;10.90;99.90;;;;;;4924437;29;20201;-81
2022/12/23 06:22:28;;;;;;;13.93;13.20;;;10.90;99.90;;;;;;4925270;29;20196;-80
2022/12/23 06:24:55;;;;;;;13.77;13.07;;;10.90;99.90;;;;;;4922848;29;20252;-80
2022/12/23 06:27:21;;;;;;;13.87;13.13;;;10.80;99.90;;;;;;4930705;29;20201;-80
2022/12/23 06:29:48;;;;;;;13.87;13.17;;;10.70;99.90;;;;;;4923049;29;20757;-80
2022/12/23 06:32:15;;;;;;;13.83;13.03;;;10.70;99.90;;;;;;4927790;29;20259;-81
2022/12/23 06:34:43;;;;;;;13.60;12.90;;;10.70;99.90;;;;;;4926937;29;20589;-79
2022/12/23 06:37:10;;;;;;;13.90;13.20;;;10.50;99.90;;;;;;4915689;29;20231;-79
2022/12/23 06:39:37;;;;;;;13.77;13.07;;;10.50;99.90;;;;;;4923372;29;20216;-81
2022/12/23 06:42:04;;;;;;;14.13;13.43;;;10.50;99.90;;;;;;4916857;29;20662;-81
2022/12/23 06:44:31;;;;;;;14.03;13.33;;;10.50;99.90;;;;;;4925325;29;20275;-82
2022/12/23 06:46:58;;;;;;;14.20;13.50;;;10.40;99.90;;;;;;4934737;29;20199;-83
2022/12/23 06:49:25;;;;;;;14.53;13.63;;;10.40;99.90;;;;;;4926897;29;20212;-82
2022/12/23 06:51:53;;;;;;;13.97;13.27;;;10.40;99.90;;;;;;4922472;29;20208;-82
2022/12/23 06:54:20;;;;;;;14.13;13.33;;;10.40;99.90;;;;;;4934393;29;20259;-80
2022/12/23 06:56:47;;;;;;;14.87;13.97;;;10.40;99.90;;;;;;4926625;29;20216;-79
2022/12/23 06:59:14;;;;;;;14.43;13.73;;;10.40;99.90;;;;;;4926272;29;20204;-82
2022/12/23 07:01:41;;;;;;;14.63;13.83;;;10.40;99.90;;;;;;4923611;29;20219;-80
2022/12/23 07:04:07;;;;;;;14.47;13.70;;;10.40;99.90;;;;;;4916321;29;20263;-81
2022/12/23 07:06:34;;;;;;;14.70;13.90;;;10.40;99.90;;;;;;4923315;29;20210;-78
2022/12/23 07:09:02;;;;;;;14.50;13.80;;;10.50;99.90;;;;;;4920781;29;20208;-81
2022/12/23 07:11:29;;;;;;;14.70;13.90;;;10.50;99.90;;;;;;4913145;29;20658;-80
2022/12/23 07:13:58;;;;;;;15.30;14.50;;;10.50;99.90;;;;;;4916040;29;20224;-81
2022/12/23 07:16:25;;;;;;;14.90;14.10;;;10.60;99.90;;;;;;4917353;29;20231;-81
2022/12/23 07:18:51;;;;;;;14.70;13.90;;;10.50;99.90;;;;;;4914041;29;20702;-81
2022/12/23 07:21:18;;;;;;;15.00;14.20;;;10.50;99.90;;;;;;4918715;29;20209;-80
2022/12/23 07:23:46;;;;;;;14.57;13.87;;;10.60;99.90;;;;;;4918336;29;20296;-80
2022/12/23 07:26:14;;;;;;;14.47;13.77;;;10.60;99.90;;;;;;4918511;29;20198;-80
2022/12/23 07:28:43;;;;;;;14.43;13.70;;;10.60;99.90;;;;;;4922688;29;20432;-81
2022/12/23 07:31:12;;;;;;;14.23;13.53;;;10.70;99.90;;;;;;4915413;29;20201;-80
2022/12/23 07:33:39;;;;;;;14.37;13.63;;;10.70;99.90;;;;;;4921516;29;20223;-79
2022/12/23 07:36:06;;;;;;;14.57;13.87;;;10.70;99.90;;;;;;4925371;29;20275;-79
2022/12/23 07:38:33;;;;;;;14.07;13.37;;;10.70;99.90;;;;;;4928390;29;20203;-79
2022/12/23 07:41:00;;;;;;;14.03;13.33;;;10.80;99.90;;;;;;4927960;29;20200;-80
2022/12/23 07:43:28;;;;;;;14.03;13.33;;;10.80;99.90;;;;;;4927220;29;20276;-78
2022/12/23 07:45:55;;;;;;;14.00;13.30;;;10.80;99.90;;;;;;4929968;29;20396;-79
2022/12/23 07:48:21;;;;;;;13.90;13.10;;;10.80;99.90;;;;;;4932633;29;20270;-80
2022/12/23 07:50:48;;;;;;;14.00;13.30;;;10.90;99.90;;;;;;4930727;29;20681;-80
2022/12/23 07:53:15;;;;;;;13.90;13.20;;;10.90;99.90;;;;;;4931777;29;20686;-80
2022/12/23 07:55:42;;;;;;;14.00;13.30;;;10.90;99.90;;;;;;4932768;29;20212;-80
2022/12/23 07:58:08;;;;;;;13.90;13.20;;;10.90;99.90;;;;;;4931384;29;20201;-80
2022/12/23 08:00:37;;;;;;;13.67;12.97;;;10.90;99.90;;;;;;4930321;29;20245;-79
2022/12/23 08:03:04;;;;;;;13.83;13.13;;;10.90;99.90;;;;;;4926105;29;20700;-79
2022/12/23 08:05:30;;;;;;;14.30;13.60;;;10.90;99.90;;;;;;4926061;29;20229;-80
2022/12/23 08:07:58;;;;;;;14.27;13.40;;;11.00;99.90;;;;;;4918524;29;20200;-78
2022/12/23 08:10:24;;;;;;;13.73;13.03;;;11.00;99.90;;;;;;4922893;29;20197;-79
2022/12/23 08:12:51;;;;;;;13.80;13.00;;;11.00;99.90;;;;;;4931223;29;20243;-78
2022/12/23 08:15:18;;;;;;;14.00;13.20;;;11.00;99.90;;;;;;4927388;29;20236;-78
2022/12/23 08:17:46;;;;;;;13.97;13.27;;;11.00;99.90;;;;;;4926696;29;20218;-79
2022/12/23 08:20:13;;;;;;;14.13;13.43;;;11.10;99.90;;;;;;4930733;29;20253;-79
2022/12/23 08:22:40;;;;;;;13.90;13.20;;;11.10;99.90;;;;;;4922037;29;20206;-78
2022/12/23 08:25:07;;;;;;;13.80;13.10;;;11.20;99.90;;;;;;4929173;29;20228;-78
2022/12/23 08:27:34;;;;;;;14.20;13.50;;;11.30;99.90;;;;;;4926166;29;20726;-79
2022/12/23 08:30:01;;;;;;;14.33;13.57;;;11.30;99.90;;;;;;4932473;29;20270;-78
2022/12/23 08:32:28;;;;;;;14.20;13.40;;;11.40;99.90;;;;;;4920996;29;20253;-78
2022/12/23 08:34:57;;;;;;;14.37;13.57;;;11.40;99.90;;;;;;4926744;29;20231;-77
2022/12/23 08:37:24;;;;;;;14.17;13.27;;;11.50;99.90;;;;;;4931074;29;20567;-79
2022/12/23 08:39:51;;;;;;;14.43;13.63;;;11.50;99.90;;;;;;4927505;29;20261;-78
2022/12/23 08:42:18;;;;;;;13.90;13.20;;;11.50;99.90;;;;;;4928978;29;20202;-79
2022/12/23 08:44:44;;;;;;;14.00;13.30;;;11.50;99.90;;;;;;4928712;29;20227;-77
2022/12/23 08:47:11;;;;;;;13.80;13.10;;;11.60;99.90;;;;;;4931279;29;20234;-77
2022/12/23 08:49:38;;;;;;;13.80;13.10;;;11.50;99.90;;;;;;4926075;29;20208;-79
2022/12/23 08:52:06;;;;;;;13.73;13.03;;;11.50;99.90;;;;;;4924657;29;20231;-77
2022/12/23 08:54:33;;;;;;;13.80;13.00;;;11.50;99.90;;;;;;4927777;29;20230;-78
2022/12/23 08:57:00;;;;;;;14.00;13.10;;;11.60;99.90;;;;;;4928637;29;20223;-77
2022/12/23 08:59:27;;;;;;;13.60;12.90;;;11.60;99.90;;;;;;4931355;29;20260;-78
2022/12/23 09:01:53;;;;;;;13.83;13.13;;;11.60;99.90;;;;;;4929422;29;20626;-78
2022/12/23 09:04:20;;;;;;;14.20;13.40;;;11.60;99.90;;;;;;4932481;29;20220;-78
2022/12/23 09:06:47;;;;;;;14.53;13.73;;;11.50;99.90;;;;;;4927902;29;20210;-79
2022/12/23 09:09:15;;;;;;;14.73;13.93;;;11.50;99.90;;;;;;4924659;29;20209;-77
2022/12/23 09:11:43;;;;;;;14.33;13.53;;;11.50;99.90;;;;;;4925633;29;20577;-78
2022/12/23 09:14:10;;;;;;;14.53;13.73;;;11.50;99.90;;;;;;4928477;29;20236;-79
2022/12/23 09:16:38;;;;;;;13.73;13.03;;;11.50;99.90;;;;;;4926471;29;20219;-79
2022/12/23 09:19:04;;;;;;;14.37;13.47;;;11.50;99.90;;;;;;4924932;29;20223;-78
2022/12/23 09:21:31;;;;;;;13.70;13.00;;;11.50;99.90;;;;;;4931108;29;20216;-78
2022/12/23 09:23:58;;;;;;;13.90;13.20;;;11.50;99.90;;;;;;4931353;29;20227;-79
2022/12/23 09:26:29;;;;;;;13.73;13.03;;;11.50;99.90;;;;;;4925743;29;20240;-78
2022/12/23 09:28:57;;;;;;;13.80;13.10;;;11.50;99.90;;;;;;4924517;29;20203;-78
2022/12/23 09:31:24;;;;;;;13.53;12.83;;;11.50;99.90;;;;;;4928512;29;20892;-78
2022/12/23 09:33:53;;;;;;;13.80;13.10;;;11.50;99.90;;;;;;4925761;29;20248;-79
2022/12/23 09:36:20;;;;;;;13.73;13.03;;;11.60;99.90;;;;;;4927615;29;20218;-78
2022/12/23 09:38:47;;;;;;;13.70;13.00;;;11.50;99.90;;;;;;4929664;29;20244;-79
2022/12/23 09:41:27;;;;;;;13.53;12.83;;;11.60;99.90;;;;;;4925318;29;20745;-79
2022/12/23 09:44:11;;;;;;;14.27;13.50;;;11.60;99.90;;;;;;4925574;29;20304;-78
2022/12/23 09:46:46;;;;;;;14.40;13.60;;;11.60;99.90;;;;;;4920845;29;20253;-76
2022/12/23 09:49:16;;;;;;;14.70;13.90;;;11.60;99.90;;;;;;4928167;29;20631;-78
2022/12/23 09:51:44;;;;;;;14.77;13.97;;;11.60;99.90;;;;;;4929146;29;20214;-78
2022/12/23 09:54:15;;;;;;;15.07;14.27;;;11.60;99.90;;;;;;4928040;29;20259;-78
2022/12/23 09:56:50;;;;;;;14.80;14.00;;;11.60;99.90;;;;;;4928350;29;20226;-78
2022/12/23 09:59:36;;;;;;;15.00;14.20;;;11.60;99.90;;;;;;4927773;29;20218;-79
2022/12/23 10:02:16;;;;;;;15.17;14.37;;;11.70;99.90;;;;;;4926854;29;20269;-77
2022/12/23 10:04:53;;;;;;;15.00;14.20;;;11.70;99.90;;;;;;4926528;29;20236;-79
2022/12/23 10:07:30;;;;;;;15.40;14.60;;;11.70;99.90;;;;;;4930639;29;20210;-78
2022/12/23 10:09:59;;;;;;;15.03;14.13;;;11.80;99.90;;;;;;4927105;29;20725;-78
2022/12/23 10:12:34;;;;;;;15.20;14.30;;;11.80;99.90;;;;;;4925955;29;20281;-78
2022/12/23 10:15:11;;;;;;;14.73;13.93;;;11.90;99.90;;;;;;4924072;29;20238;-79
2022/12/23 10:17:40;;;;;;;16.00;15.10;;;12.00;99.90;;;;;;4924847;29;20221;-78
2022/12/23 10:20:16;;;;;;;15.27;14.47;;;12.10;99.90;;;;;;4925905;29;20215;-78
2022/12/23 10:22:45;;;;;;;15.97;15.07;;;12.10;99.90;;;;;;4926938;29;20651;-78
2022/12/23 10:25:15;;;;;;;15.30;14.50;;;12.10;99.90;;;;;;4928406;29;20275;-77
2022/12/23 10:27:43;;;;;;;15.43;14.53;;;12.20;99.90;;;;;;4927733;29;20633;-77
2022/12/23 10:30:16;;;;;;;15.30;14.40;;;12.20;99.90;;;;;;4919215;29;20211;-78
2022/12/23 10:33:01;;;;;;;15.17;14.37;;;12.30;99.90;;;;;;4923253;29;20198;-78
2022/12/23 10:35:48;;;;;;;15.23;14.40;;;12.30;99.90;;;;;;4912394;29;20265;-78
2022/12/23 10:38:41;;;;;;;14.80;14.00;;;12.30;99.90;;;;;;4927090;29;20234;-78
2022/12/23 10:41:18;;;;;;;14.17;13.37;;;12.40;99.90;;;;;;4928992;29;20209;-77
2022/12/23 10:44:02;;;;;;;15.03;14.13;;;12.50;99.90;;;;;;4926264;29;20286;-78
2022/12/23 10:46:39;;;;;;;14.67;13.87;;;12.60;99.90;;;;;;4914741;29;20274;-77
2022/12/23 10:49:19;;;;;;;15.00;14.10;;;12.60;99.90;;;;;;4921852;29;20208;-78
2022/12/23 10:51:49;;;;;;;14.50;13.70;;;12.60;99.90;;;;;;4923329;29;20215;-77
2022/12/23 10:54:20;;;;;;;14.90;14.00;;;12.60;99.90;;;;;;4928273;29;20252;-78
2022/12/23 10:56:47;;;;;;;14.47;13.67;;;12.70;99.90;;;;;;4927228;29;20206;-77
2022/12/23 10:59:25;;;;;;;14.40;13.57;;;12.80;99.90;;;;;;4927963;29;20231;-78
2022/12/23 11:02:01;;;;;;;14.60;13.70;;;12.80;99.90;;;;;;4920091;29;20645;-78
2022/12/23 11:04:34;;;;;;;14.80;14.00;;;12.90;99.90;;;;;;4918177;29;20223;-78
2022/12/23 11:07:02;;;;;;;14.70;13.80;;;12.90;99.90;;;;;;4920745;29;20628;-75
2022/12/23 11:09:38;;;;;;;14.70;13.90;;;13.00;99.90;;;;;;4938211;29;20203;-80
2022/12/23 11:12:08;;;;;;;14.60;13.60;;;13.10;99.90;;;;;;4915248;29;20199;-77
2022/12/23 11:14:38;;;;;;;14.40;13.60;;;13.10;99.90;;;;;;4918922;29;20324;-77
2022/12/23 11:17:19;;;;;;;14.50;13.70;;;13.10;99.90;;;;;;4926577;29;20223;-77
2022/12/23 11:19:46;;;;;;;13.80;13.00;;;13.20;99.90;;;;;;4923457;29;20219;-78
2022/12/23 11:22:22;;;;;;;13.93;13.20;;;13.20;99.90;;;;;;4920100;29;20268;-77
2022/12/23 11:24:49;;;;;;;14.10;13.30;;;13.20;99.90;;;;;;4922383;29;20295;-77
2022/12/23 11:27:17;;;;;;;13.17;12.47;;;13.30;99.90;;;;;;4926571;29;20199;-77
2022/12/23 11:29:48;;;;;;;12.93;12.23;;;13.30;99.90;;;;;;4918073;29;20233;-78
2022/12/23 11:32:20;;;;;;;13.00;12.30;;;13.30;99.90;;;;;;4918182;29;20204;-77
2022/12/23 11:34:48;;;;;;;13.00;12.30;;;13.40;99.90;;;;;;4917256;29;20224;-77
2022/12/23 11:37:31;;;;;;;12.83;12.13;;;13.40;99.90;;;;;;4920117;29;20212;-77
2022/12/23 11:39:58;;;;;;;12.70;12.00;;;13.40;99.90;;;;;;4929187;29;20214;-77
2022/12/23 11:42:29;;;;;;;13.20;12.50;;;13.40;99.90;;;;;;4929662;29;20260;-78
2022/12/23 11:45:00;;;;;;;13.17;12.47;;;13.30;99.90;;;;;;4934366;29;20718;-78
2022/12/23 11:47:35;;;;;;;13.27;12.57;;;13.40;99.90;;;;;;4929193;29;20195;-78
2022/12/23 11:50:24;;;;;;;13.37;12.67;;;13.30;99.90;;;;;;4932330;29;20219;-77
2022/12/23 11:52:52;;;;;;;13.37;12.67;;;13.20;99.90;;;;;;4926680;29;20226;-78
2022/12/23 11:55:24;;;;;;;13.60;12.90;;;13.30;99.90;;;;;;4934239;29;20226;-77
2022/12/23 11:57:52;;;;;;;13.30;12.60;;;13.30;99.90;;;;;;4926154;29;20234;-78
2022/12/23 12:00:22;;;;;;;13.43;12.73;;;13.30;99.90;;;;;;4928277;29;20291;-77
2022/12/23 12:02:52;;;;;;;13.40;12.60;;;13.20;99.90;;;;;;4930350;29;20263;-80
2022/12/23 12:05:22;;;;;;;13.43;12.73;;;13.20;99.90;;;;;;4928560;29;20232;-79
2022/12/23 12:07:51;;;;;;;13.60;12.90;;;13.10;99.90;;;;;;4930288;29;20255;-79
2022/12/23 12:10:20;;;;;;;13.47;12.77;;;13.00;99.90;;;;;;4928417;29;20345;-78
2022/12/23 12:12:49;;;;;;;13.70;13.00;;;13.00;99.90;;;;;;4929665;29;20208;-81
2022/12/23 12:15:33;;;;;;;13.10;12.40;;;12.90;99.90;;;;;;4929521;29;20724;-80
2022/12/23 12:18:06;;;;;;;13.03;12.33;;;12.90;99.90;;;;;;4918725;29;20283;-80
2022/12/23 12:20:39;;;;;;;13.50;12.80;;;12.90;99.90;;;;;;4905631;29;20261;-81
2022/12/23 12:23:11;;;;;;;13.50;12.60;;;12.80;99.90;;;;;;4908413;29;20200;-79
2022/12/23 12:25:41;;;;;;;13.47;12.70;;;12.80;99.90;;;;;;4913314;29;20197;-80
2022/12/23 12:28:13;;;;;;;13.60;12.80;;;12.80;99.90;;;;;;4910341;29;20215;-80
2022/12/23 12:30:48;;;;;;;13.20;12.50;;;12.80;99.90;;;;;;4908985;29;20260;-79
2022/12/23 12:33:21;;;;;;;13.10;12.40;;;12.80;99.90;;;;;;4905930;29;20263;-80
2022/12/23 12:35:49;;;;;;;13.47;12.67;;;12.80;99.90;;;;;;4912185;29;20199;-80
2022/12/23 12:38:21;;;;;;;13.70;12.90;;;12.80;99.90;;;;;;4906029;29;20228;-80
2022/12/23 12:40:52;;;;;;;13.37;12.67;;;12.90;99.90;;;;;;4908777;29;20259;-80
2022/12/23 12:43:26;;;;;;;13.57;12.77;;;12.90;99.90;;;;;;4917119;29;20295;-80
2022/12/23 12:46:03;;;;;;;13.50;12.70;;;12.90;99.90;;;;;;4931739;29;20255;-80
2022/12/23 12:48:40;;;;;;;13.27;12.53;;;12.90;99.90;;;;;;4916900;29;20624;-79
2022/12/23 12:51:16;;;;;;;13.40;12.70;;;12.90;99.90;;;;;;4928996;29;20207;-79
2022/12/23 12:53:53;;;;;;;13.23;12.50;;;12.90;99.90;;;;;;4931889;29;20245;-79
2022/12/23 12:56:27;;;;;;;13.57;12.87;;;12.90;99.90;;;;;;4930673;29;20216;-79
2022/12/23 12:58:54;;;;;;;13.50;12.80;;;12.90;99.90;;;;;;4904620;29;20227;-80
2022/12/23 13:01:45;;;;;;;13.67;12.87;;;12.80;99.90;;;;;;4909472;29;20208;-78
2022/12/23 13:04:49;;;;;;;13.20;12.50;;;12.80;99.90;;;;;;4931389;29;20255;-77
2022/12/23 13:07:26;;;;;;;13.10;12.40;;;12.80;99.90;;;;;;4917236;29;20218;-78
2022/12/23 13:10:00;;;;;;;13.60;12.80;;;12.90;99.90;;;;;;4923234;29;20228;-80
2022/12/23 13:12:40;;;;;;;13.20;12.50;;;12.90;99.90;;;;;;4909366;29;20204;-80
2022/12/23 13:15:18;;;;;;;13.30;12.60;;;12.90;99.90;;;;;;4903697;29;20728;-79
2022/12/23 13:17:56;;;;;;;13.50;12.73;;;13.00;99.90;;;;;;4918152;29;20215;-80
2022/12/23 13:20:32;;;;;;;13.63;12.93;;;13.00;99.90;;;;;;4917948;29;20262;-80
2022/12/23 13:23:05;;;;;;;13.67;12.87;;;12.90;99.90;;;;;;4929019;29;20210;-80
2022/12/23 13:25:39;;;;;;;13.77;13.03;;;13.00;99.90;;;;;;4919617;29;20554;-79
2022/12/23 13:28:20;;;;;;;13.57;12.87;;;13.00;99.90;;;;;;4928821;29;20198;-79
2022/12/23 13:30:55;;;;;;;13.60;12.90;;;13.00;99.90;;;;;;4929765;29;20639;-77
2022/12/23 13:33:25;;;;;;;13.40;12.70;;;13.00;99.90;;;;;;4927116;29;20274;-78
2022/12/23 13:36:09;;;;;;;13.60;12.87;;;13.00;99.90;;;;;;4930630;29;20207;-79
2022/12/23 13:38:51;;;;;;;13.30;12.60;;;13.00;99.90;;;;;;4921588;29;20227;-79
2022/12/23 13:41:28;;;;;;;13.10;12.40;;;13.00;99.90;;;;;;4931658;29;20266;-78
2022/12/23 13:43:58;;;;;;;13.10;12.40;;;13.00;99.90;;;;;;4926633;29;20223;-78
2022/12/23 13:46:38;;;;;;;13.10;12.37;;;13.00;99.90;;;;;;4931070;29;20687;-79
2022/12/23 13:49:12;;;;;;;12.93;12.23;;;13.00;99.90;;;;;;4927071;29;20268;-78
2022/12/23 13:51:49;;;;;;;13.03;12.33;;;13.00;99.90;;;;;;4928320;29;20235;-79
2022/12/23 13:54:27;;;;;;;13.80;13.00;;;13.00;99.90;;;;;;4927266;29;20258;-79
2022/12/23 13:57:07;;;;;;;14.50;13.70;;;13.00;99.90;;;;;;4929715;29;20207;-79
2022/12/23 13:59:42;;;;;;;13.50;12.80;;;13.00;99.90;;;;;;4924961;29;20233;-79
2022/12/23 14:02:43;;;;;;;13.70;13.00;;;13.00;99.90;;;;;;4913082;29;20672;-79
2022/12/23 14:05:34;;;;;;;13.33;12.63;;;13.00;99.90;;;;;;4916041;29;20325;-79
2022/12/23 14:08:05;;;;;;;13.03;12.33;;;13.00;99.90;;;;;;4930498;29;20221;-79
2022/12/23 14:10:34;;;;;;;13.20;12.50;;;13.00;99.90;;;;;;4928762;29;20206;-79
2022/12/23 14:13:04;;;;;;;13.10;12.40;;;13.00;99.90;;;;;;4928563;29;20669;-80
2022/12/23 14:15:54;;;;;;;13.20;12.50;;;13.00;99.90;;;;;;4923095;29;20263;-79
2022/12/23 14:18:53;;;;;;;13.10;12.40;;;12.90;99.90;;;;;;4931377;29;20215;-80
2022/12/23 14:21:31;;;;;;;12.97;12.27;;;12.90;99.90;;;;;;4929882;29;20637;-80
2022/12/23 14:24:26;;;;;;;13.00;12.30;;;12.90;99.90;;;;;;4913503;29;20243;-79
2022/12/23 14:27:37;;;;;;;12.73;12.13;;;12.90;99.90;;;;;;4910074;29;20271;-79
2022/12/23 14:30:12;;;;;;;13.20;12.50;;;12.80;99.90;;;;;;4862138;29;20269;-79
2022/12/23 14:32:45;;;;;;;13.20;12.50;;;12.80;99.90;;;;;;4853670;29;20208;-80
2022/12/23 14:35:25;;;;;;;13.13;12.43;;;12.80;99.90;;;;;;4886973;29;20711;-79
2022/12/23 14:38:24;;;;;;;12.83;12.03;;;12.80;99.90;;;;;;4932022;29;20270;-79
2022/12/23 14:41:12;;;;;;;13.03;12.30;;;12.80;99.90;;;;;;4874191;29;20292;-79
2022/12/23 14:43:58;;;;;;;13.73;12.93;;;12.80;99.90;;;;;;4925097;29;20231;-79
2022/12/23 14:46:55;;;;;;;13.53;12.80;;;12.80;99.90;;;;;;4928710;29;20237;-79
2022/12/23 14:49:42;;;;;;;13.70;12.90;;;12.80;99.90;;;;;;4927375;29;20223;-80
2022/12/23 14:52:48;;;;;;;13.53;12.80;;;12.80;99.90;;;;;;4928423;29;20301;-79
2022/12/23 14:55:39;;;;;;;13.50;12.80;;;12.90;99.90;;;;;;4926689;29;20227;-78
2022/12/23 14:58:35;;;;;;;13.80;13.10;;;12.80;99.90;;;;;;4922136;29;20451;-79
2022/12/23 15:01:10;;;;;;;14.20;13.40;;;12.80;99.90;;;;;;4930785;29;20221;-79
2022/12/23 15:03:44;;;;;;;14.30;13.50;;;12.80;99.90;;;;;;4925627;29;20471;-82
2022/12/23 15:06:17;;;;;;;13.60;12.80;;;12.80;99.90;;;;;;4925297;29;20255;-80
2022/12/23 15:08:45;;;;;;;13.30;12.60;;;12.80;99.90;;;;;;4918528;29;20199;-78
2022/12/23 15:11:22;;;;;;;13.20;12.50;;;12.80;99.90;;;;;;4925479;29;20211;-79
2022/12/23 15:13:53;;;;;;;13.30;12.60;;;12.80;99.90;;;;;;4925034;29;20237;-79
2022/12/23 15:16:29;;;;;;;13.87;13.07;;;12.80;99.90;;;;;;4927661;29;20208;-80
2022/12/23 15:18:57;;;;;;;13.47;12.60;;;12.80;99.90;;;;;;4925521;29;20223;-79
2022/12/23 15:21:28;;;;;;;13.70;12.90;;;12.70;99.90;;;;;;4920501;29;20238;-78
2022/12/23 15:23:55;;;;;;;13.43;12.70;;;12.70;99.90;;;;;;4919369;29;20231;-79
2022/12/23 15:26:26;;;;;;;13.80;12.90;;;12.70;99.90;;;;;;4922145;29;20215;-78
2022/12/23 15:28:55;;;;;;;13.47;12.77;;;12.70;99.90;;;;;;4911218;29;20204;-78
2022/12/23 15:31:27;;;;;;;13.50;12.70;;;12.70;99.90;;;;;;4925752;29;20211;-78
2022/12/23 15:33:55;;;;;;;13.30;12.50;;;12.70;99.90;;;;;;4925863;29;20282;-78
2022/12/23 15:36:29;;;;;;;13.53;12.83;;;12.70;99.90;;;;;;4926571;29;20261;-79
2022/12/23 15:38:57;;;;;;;13.07;12.37;;;12.60;99.90;;;;;;4917660;29;20227;-78
2022/12/23 15:41:23;;;;;;;13.90;13.10;;;12.60;99.90;;;;;;4917587;29;20584;-79
2022/12/23 15:43:51;;;;;;;13.60;12.80;;;12.60;99.90;;;;;;4923961;29;20277;-78
2022/12/23 15:46:22;;;;;;;13.53;12.83;;;12.60;99.90;;;;;;4932472;29;20265;-79
2022/12/23 15:48:50;;;;;;;13.67;12.97;;;12.60;99.90;;;;;;4920124;29;20255;-78
2022/12/23 15:51:22;;;;;;;13.33;12.63;;;12.60;99.90;;;;;;4926311;29;20209;-79